Time;durP1;ratioP1;P1;durP2;ratioP2;P2;SDS_P1;SDS_P2;PMS_P1;PMS_P2;Temp;Humidity;BMP_temperature;BMP_pressure;BME280_temperature;BME280_humidity;BME280_pressure;Samples;Min_cycle;Max_cycle;Signal;HPM_P1;HPM_P2
2022/07/04 00:01:55;;;;;;;2.67;2.45;;;;;;;;;;10213923;29;20035;-83
2022/07/04 00:07:14;;;;;;;2.83;2.60;;;;;;;;;;10231350;29;20075;-83
2022/07/04 00:12:33;;;;;;;4.13;2.22;;;;;;;;;;10243167;28;20035;-82
2022/07/04 00:17:53;;;;;;;3.17;2.28;;;;;;;;;;10236679;29;20047;-83
2022/07/04 00:23:12;;;;;;;2.67;2.40;;;;;;;;;;10250850;29;20048;-83
2022/07/04 00:28:31;;;;;;;2.60;2.40;;;;;;;;;;10239788;28;20044;-83
2022/07/04 00:33:50;;;;;;;2.33;2.13;;;;;;;;;;10246285;29;20048;-83
2022/07/04 00:39:10;;;;;;;2.60;2.40;;;;;;;;;;10235387;29;20051;-83
2022/07/04 00:44:30;;;;;;;2.50;2.28;;;;;;;;;;10239986;28;20507;-83
2022/07/04 00:49:49;;;;;;;2.50;2.40;;;;;;;;;;10252208;28;20043;-82
2022/07/04 00:55:09;;;;;;;2.42;2.20;;;;;;;;;;10253123;28;20099;-83
2022/07/04 01:00:29;;;;;;;3.20;2.10;;;;;;;;;;10241603;28;20054;-83
2022/07/04 01:05:49;;;;;;;2.10;1.90;;;;;;;;;;10229786;28;20084;-83
2022/07/04 01:11:09;;;;;;;2.35;2.15;;;;;;;;;;10249820;28;20423;-83
2022/07/04 01:16:28;;;;;;;2.30;2.10;;;;;;;;;;10247099;28;20040;-83
2022/07/04 01:21:48;;;;;;;2.38;2.17;;;;;;;;;;10238973;28;20047;-83
2022/07/04 01:27:07;;;;;;;2.30;1.95;;;;;;;;;;10232490;28;20050;-83
2022/07/04 01:32:26;;;;;;;2.10;2.00;;;;;;;;;;10233000;28;20041;-83
2022/07/04 01:37:46;;;;;;;2.45;2.10;;;;;;;;;;10226097;28;20043;-83
2022/07/04 01:43:05;;;;;;;2.30;2.00;;;;;;;;;;10241336;28;20419;-83
2022/07/04 01:48:25;;;;;;;2.60;2.00;;;;;;;;;;10245247;28;20050;-83
2022/07/04 01:53:44;;;;;;;2.50;2.30;;;;;;;;;;10235968;28;20051;-83
2022/07/04 01:59:03;;;;;;;2.50;2.30;;;;;;;;;;10217087;29;20036;-83
2022/07/04 02:04:23;;;;;;;1.98;1.88;;;;;;;;;;10241457;28;20047;-84
2022/07/04 02:09:42;;;;;;;2.20;2.10;;;;;;;;;;10258679;28;20060;-82
2022/07/04 02:15:01;;;;;;;4.43;2.35;;;;;;;;;;10242232;28;20036;-83
2022/07/04 02:20:21;;;;;;;2.33;2.13;;;;;;;;;;10236247;28;20043;-83
2022/07/04 02:25:40;;;;;;;2.47;2.22;;;;;;;;;;10238329;28;20051;-83
2022/07/04 02:30:59;;;;;;;2.40;2.20;;;;;;;;;;10253955;28;20422;-82
2022/07/04 02:36:18;;;;;;;2.15;2.05;;;;;;;;;;10253699;28;20126;-82
2022/07/04 02:41:38;;;;;;;2.50;2.33;;;;;;;;;;10236829;28;20044;-83
2022/07/04 02:46:57;;;;;;;2.70;2.30;;;;;;;;;;10251739;28;20059;-83
2022/07/04 02:52:16;;;;;;;2.22;2.08;;;;;;;;;;10262083;28;20048;-82
2022/07/04 02:57:37;;;;;;;2.28;2.17;;;;;;;;;;10226686;28;20048;-82
2022/07/04 03:02:56;;;;;;;2.60;2.40;;;;;;;;;;10237503;28;20048;-83
2022/07/04 03:08:16;;;;;;;2.50;2.20;;;;;;;;;;10233289;28;20108;-83
2022/07/04 03:13:36;;;;;;;2.42;2.15;;;;;;;;;;10241926;28;20052;-83
2022/07/04 03:18:55;;;;;;;2.05;1.92;;;;;;;;;;10235900;28;20483;-83
2022/07/04 03:24:14;;;;;;;2.35;2.15;;;;;;;;;;10219364;28;20051;-83
2022/07/04 03:29:34;;;;;;;3.80;2.40;;;;;;;;;;10242514;28;20039;-81
2022/07/04 03:34:53;;;;;;;2.00;1.90;;;;;;;;;;10229486;28;20043;-83
2022/07/04 03:40:12;;;;;;;2.63;2.13;;;;;;;;;;10250913;28;20043;-83
2022/07/04 03:45:32;;;;;;;2.30;2.10;;;;;;;;;;10244802;28;20043;-83
2022/07/04 03:50:51;;;;;;;2.25;1.98;;;;;;;;;;10216140;29;20373;-83
2022/07/04 03:56:11;;;;;;;2.70;1.95;;;;;;;;;;10223033;29;20051;-83
2022/07/04 04:01:30;;;;;;;2.05;1.95;;;;;;;;;;10217578;29;20058;-83
2022/07/04 04:06:50;;;;;;;2.35;2.03;;;;;;;;;;10228625;28;20051;-83
2022/07/04 04:12:09;;;;;;;3.22;2.20;;;;;;;;;;10228170;28;20419;-83
2022/07/04 04:17:28;;;;;;;4.15;2.22;;;;;;;;;;10238477;29;20047;-82
2022/07/04 04:22:49;;;;;;;2.35;2.15;;;;;;;;;;10241699;28;20491;-83
2022/07/04 04:28:09;;;;;;;2.20;2.00;;;;;;;;;;10239200;28;20042;-83
2022/07/04 04:33:28;;;;;;;2.88;2.42;;;;;;;;;;10270993;28;20039;-83
2022/07/04 04:38:47;;;;;;;2.33;2.22;;;;;;;;;;10256022;28;20102;-83
2022/07/04 04:44:06;;;;;;;2.78;2.20;;;;;;;;;;10262553;28;20487;-83
2022/07/04 04:49:26;;;;;;;2.40;1.95;;;;;;;;;;10259400;28;20051;-83
2022/07/04 04:54:45;;;;;;;2.38;2.17;;;;;;;;;;10251858;28;20054;-83
2022/07/04 05:00:04;;;;;;;3.60;2.22;;;;;;;;;;10242459;28;20051;-83
2022/07/04 05:05:24;;;;;;;3.88;2.22;;;;;;;;;;10243796;28;20078;-82
2022/07/04 05:10:43;;;;;;;2.42;2.28;;;;;;;;;;10250151;28;20043;-83
2022/07/04 05:16:03;;;;;;;3.03;2.40;;;;;;;;;;10269286;28;20079;-83
2022/07/04 05:21:22;;;;;;;2.65;2.45;;;;;;;;;;10241463;28;20562;-83
2022/07/04 05:26:42;;;;;;;2.47;2.28;;;;;;;;;;10242243;28;20055;-83
2022/07/04 05:32:01;;;;;;;2.63;2.17;;;;;;;;;;10248451;28;20040;-83
2022/07/04 05:37:23;;;;;;;3.08;2.10;;;;;;;;;;10239098;28;20055;-83
2022/07/04 05:42:43;;;;;;;2.22;2.03;;;;;;;;;;10254716;28;20043;-83
2022/07/04 05:48:02;;;;;;;1.90;1.80;;;;;;;;;;10236799;28;20066;-83
2022/07/04 05:53:22;;;;;;;2.10;1.70;;;;;;;;;;10241789;28;20048;-83
2022/07/04 05:58:41;;;;;;;1.90;1.70;;;;;;;;;;10230780;28;20480;-83
2022/07/04 06:04:00;;;;;;;1.98;1.70;;;;;;;;;;10235979;28;20052;-83
2022/07/04 06:09:20;;;;;;;2.17;1.65;;;;;;;;;;10248249;28;20050;-83
2022/07/04 06:14:39;;;;;;;1.88;1.70;;;;;;;;;;10250240;28;20046;-83
2022/07/04 06:19:58;;;;;;;2.30;1.70;;;;;;;;;;10231237;28;20391;-83
2022/07/04 06:25:19;;;;;;;2.53;1.80;;;;;;;;;;10205369;28;20059;-83
2022/07/04 06:30:38;;;;;;;1.80;1.70;;;;;;;;;;10235557;28;20133;-83
2022/07/04 06:35:58;;;;;;;3.08;2.40;;;;;;;;;;10244331;28;20046;-83
2022/07/04 06:41:18;;;;;;;2.20;2.00;;;;;;;;;;10230354;28;20036;-83
2022/07/04 06:46:38;;;;;;;1.92;1.83;;;;;;;;;;10244521;28;20047;-83
2022/07/04 06:51:57;;;;;;;2.17;2.00;;;;;;;;;;10240486;28;20052;-83
2022/07/04 06:57:16;;;;;;;1.80;1.70;;;;;;;;;;10227292;28;20430;-83
2022/07/04 07:02:36;;;;;;;2.05;1.88;;;;;;;;;;10225783;28;20048;-83
2022/07/04 07:07:55;;;;;;;2.05;1.85;;;;;;;;;;10226133;28;20048;-83
2022/07/04 07:13:15;;;;;;;2.30;1.80;;;;;;;;;;10236327;28;20043;-83
2022/07/04 07:18:35;;;;;;;1.98;1.85;;;;;;;;;;10223506;28;20040;-83
2022/07/04 07:23:54;;;;;;;2.92;2.00;;;;;;;;;;10214827;28;20055;-83
2022/07/04 07:29:13;;;;;;;2.03;1.88;;;;;;;;;;10260238;28;20113;-84
2022/07/04 07:34:32;;;;;;;1.95;1.85;;;;;;;;;;10243781;28;20039;-84
2022/07/04 07:39:53;;;;;;;2.10;1.90;;;;;;;;;;10230720;29;20632;-83
2022/07/04 07:45:13;;;;;;;2.05;1.90;;;;;;;;;;10246240;28;20054;-84
2022/07/04 07:50:32;;;;;;;3.00;2.30;;;;;;;;;;10224131;28;20562;-83
2022/07/04 07:55:52;;;;;;;2.53;2.33;;;;;;;;;;10252499;28;20050;-84
2022/07/04 08:01:11;;;;;;;2.83;2.58;;;;;;;;;;10212100;29;20050;-82
2022/07/04 08:06:31;;;;;;;2.97;2.65;;;;;;;;;;10221700;28;20043;-83
2022/07/04 08:11:51;;;;;;;2.83;2.63;;;;;;;;;;10230962;28;20047;-83
2022/07/04 08:17:10;;;;;;;2.30;2.10;;;;;;;;;;10230000;28;20608;-83
2022/07/04 08:22:30;;;;;;;2.58;2.35;;;;;;;;;;10231691;28;20047;-83
2022/07/04 08:27:49;;;;;;;2.55;2.35;;;;;;;;;;10233708;28;20055;-82
2022/07/04 08:33:09;;;;;;;4.30;2.33;;;;;;;;;;10248597;28;20040;-82
2022/07/04 08:38:28;;;;;;;2.30;1.88;;;;;;;;;;10223566;28;20042;-82
2022/07/04 08:43:48;;;;;;;3.40;1.88;;;;;;;;;;10244224;28;20055;-84
2022/07/04 08:49:15;;;;;;;2.85;2.40;;;;;;;;;;10248396;28;20052;-84
2022/07/04 09:00:13;;;;;;;2.13;1.95;;;;;;;;;;10238400;28;20035;-83
2022/07/04 09:05:33;;;;;;;2.15;1.95;;;;;;;;;;10218961;28;20055;-84
2022/07/04 09:10:53;;;;;;;3.03;2.50;;;;;;;;;;10235532;28;20066;-83
2022/07/04 09:16:12;;;;;;;2.72;2.50;;;;;;;;;;10241118;28;20494;-84
2022/07/04 09:21:47;;;;;;;2.53;2.20;;;;;;;;;;10243118;28;20039;-83
2022/07/04 09:27:06;;;;;;;2.60;2.40;;;;;;;;;;10238082;28;20059;-83
2022/07/04 09:32:34;;;;;;;2.78;2.58;;;;;;;;;;10235990;28;20549;-83
2022/07/04 09:37:55;;;;;;;4.45;2.55;;;;;;;;;;10235621;28;20039;-83
2022/07/04 09:43:14;;;;;;;3.40;2.53;;;;;;;;;;10217161;28;20036;-83
2022/07/04 09:48:54;;;;;;;2.95;2.50;;;;;;;;;;10210233;28;20876;-83
2022/07/04 09:54:16;;;;;;;4.25;2.58;;;;;;;;;;10210341;29;20040;-82
2022/07/04 09:59:35;;;;;;;3.88;2.55;;;;;;;;;;10222288;28;20040;-82
2022/07/04 10:04:55;;;;;;;4.20;2.80;;;;;;;;;;10222185;28;20039;-84
2022/07/04 10:10:32;;;;;;;2.78;2.58;;;;;;;;;;10224615;28;20040;-83
2022/07/04 10:15:52;;;;;;;3.38;3.03;;;;;;;;;;10219972;28;20055;-83
2022/07/04 10:21:12;;;;;;;4.22;2.92;;;;;;;;;;10243490;28;20094;-83
2022/07/04 10:26:32;;;;;;;2.92;2.42;;;;;;;;;;10234976;28;20531;-83
2022/07/04 10:31:51;;;;;;;2.90;2.70;;;;;;;;;;10222544;28;20392;-83
2022/07/04 10:37:10;;;;;;;5.55;2.80;;;;;;;;;;10215510;28;20496;-83
2022/07/04 10:42:30;;;;;;;2.40;2.20;;;;;;;;;;10205579;28;20067;-83
2022/07/04 10:47:54;;;;;;;3.83;2.35;;;;;;;;;;10218996;28;20303;-83
2022/07/04 10:53:14;;;;;;;3.72;2.40;;;;;;;;;;10190504;29;20052;-83
2022/07/04 10:58:40;;;;;;;2.55;2.35;;;;;;;;;;10222116;28;20044;-84
2022/07/04 11:03:59;;;;;;;2.92;2.58;;;;;;;;;;10219062;28;20050;-84
2022/07/04 11:09:19;;;;;;;2.85;2.50;;;;;;;;;;10232001;28;20047;-84
2022/07/04 11:14:43;;;;;;;4.05;2.50;;;;;;;;;;10217158;28;20048;-84
2022/07/04 11:20:03;;;;;;;2.85;2.40;;;;;;;;;;10220041;28;20043;-83
2022/07/04 11:25:24;;;;;;;2.47;2.28;;;;;;;;;;10203387;28;20084;-82
2022/07/04 11:30:54;;;;;;;2.40;2.15;;;;;;;;;;10199432;28;20403;-83
2022/07/04 11:36:16;;;;;;;2.35;2.15;;;;;;;;;;10212170;28;20040;-83
2022/07/04 11:47:22;;;;;;;5.25;2.47;;;;;;;;;;10195643;29;20052;-83
2022/07/04 11:52:46;;;;;;;2.42;2.22;;;;;;;;;;10221412;29;20051;-83
2022/07/04 11:58:05;;;;;;;5.55;2.40;;;;;;;;;;10229725;28;20098;-83
2022/07/04 12:03:25;;;;;;;3.47;2.20;;;;;;;;;;10201810;29;20392;-83
2022/07/04 12:08:45;;;;;;;2.40;2.20;;;;;;;;;;10212023;29;20143;-83
2022/07/04 12:14:22;;;;;;;8.40;2.20;;;;;;;;;;10213695;29;20396;-83
2022/07/04 12:19:52;;;;;;;2.65;2.30;;;;;;;;;;10217542;28;20044;-83
2022/07/04 12:25:24;;;;;;;2.53;2.33;;;;;;;;;;10193910;29;20048;-84
2022/07/04 12:30:54;;;;;;;4.85;2.38;;;;;;;;;;10225692;28;20044;-83
2022/07/04 12:36:13;;;;;;;3.75;2.88;;;;;;;;;;10196557;29;20391;-83
2022/07/04 12:41:33;;;;;;;5.60;2.92;;;;;;;;;;10218931;28;20539;-83
2022/07/04 12:46:55;;;;;;;4.88;3.00;;;;;;;;;;10225772;28;20075;-84
2022/07/04 12:52:16;;;;;;;4.53;3.20;;;;;;;;;;10234281;28;20054;-84
2022/07/04 12:57:35;;;;;;;4.65;3.28;;;;;;;;;;10232855;28;20039;-83
2022/07/04 13:02:55;;;;;;;4.05;3.00;;;;;;;;;;10235610;28;20044;-84
2022/07/04 13:08:14;;;;;;;4.50;3.22;;;;;;;;;;10223927;28;20095;-83
2022/07/04 13:13:34;;;;;;;3.67;3.17;;;;;;;;;;10228402;28;20040;-84
2022/07/04 13:18:53;;;;;;;5.70;3.00;;;;;;;;;;10192531;29;20040;-83
2022/07/04 13:24:13;;;;;;;4.45;2.72;;;;;;;;;;10205809;28;20075;-83
2022/07/04 13:29:32;;;;;;;4.22;3.10;;;;;;;;;;10223720;28;20075;-83
2022/07/04 13:34:52;;;;;;;3.40;2.72;;;;;;;;;;10226742;28;20039;-84
2022/07/04 13:40:11;;;;;;;3.50;3.10;;;;;;;;;;10222342;28;20044;-82
2022/07/04 13:45:31;;;;;;;3.10;2.80;;;;;;;;;;10237703;28;20044;-83
2022/07/04 13:50:50;;;;;;;4.25;3.03;;;;;;;;;;10218005;29;20051;-84
2022/07/04 13:56:11;;;;;;;3.25;2.95;;;;;;;;;;10235557;28;20048;-83
2022/07/04 14:01:31;;;;;;;2.85;2.65;;;;;;;;;;10235041;28;20062;-83
2022/07/04 14:06:50;;;;;;;4.13;2.90;;;;;;;;;;10230326;28;20048;-83
2022/07/04 14:12:09;;;;;;;3.38;2.63;;;;;;;;;;10222649;28;20051;-83
2022/07/04 14:17:29;;;;;;;2.83;2.63;;;;;;;;;;10229722;28;20510;-83
2022/07/04 14:22:48;;;;;;;2.78;2.58;;;;;;;;;;10216513;28;20618;-83
2022/07/04 14:28:07;;;;;;;3.97;2.47;;;;;;;;;;10221118;28;20055;-84
2022/07/04 14:33:26;;;;;;;3.95;2.95;;;;;;;;;;10219172;28;20035;-83
2022/07/04 14:38:45;;;;;;;4.75;2.90;;;;;;;;;;10214537;28;20051;-83
2022/07/04 14:44:05;;;;;;;3.58;2.70;;;;;;;;;;10212881;28;20070;-83
2022/07/04 14:49:24;;;;;;;5.03;2.50;;;;;;;;;;10202867;28;20741;-82
2022/07/04 14:54:43;;;;;;;3.63;2.60;;;;;;;;;;10217852;28;20042;-84
2022/07/04 15:00:03;;;;;;;4.80;2.90;;;;;;;;;;10239290;28;20036;-83
2022/07/04 15:05:22;;;;;;;3.92;3.17;;;;;;;;;;10224519;28;20043;-84
2022/07/04 15:10:41;;;;;;;5.50;2.78;;;;;;;;;;10223632;28;20043;-83
2022/07/04 15:16:01;;;;;;;4.20;3.10;;;;;;;;;;10223180;28;20055;-83
2022/07/04 15:26:58;;;;;;;3.65;2.70;;;;;;;;;;10197647;28;20083;-83
2022/07/04 15:32:17;;;;;;;3.03;2.72;;;;;;;;;;10227756;28;20047;-83
2022/07/04 15:37:36;;;;;;;4.28;2.90;;;;;;;;;;10241708;28;20040;-83
2022/07/04 15:42:56;;;;;;;4.45;2.70;;;;;;;;;;10221619;28;20035;-83
2022/07/04 15:48:15;;;;;;;4.82;2.97;;;;;;;;;;10241790;28;20036;-82
2022/07/04 15:53:34;;;;;;;4.43;3.05;;;;;;;;;;10227747;29;20447;-83
2022/07/04 15:58:54;;;;;;;6.90;3.00;;;;;;;;;;10219619;29;20567;-83
2022/07/04 16:04:13;;;;;;;5.07;3.05;;;;;;;;;;10227099;28;20059;-84
2022/07/04 16:09:32;;;;;;;3.65;3.20;;;;;;;;;;10240433;29;20035;-84
2022/07/04 16:14:51;;;;;;;8.43;7.15;;;;;;;;;;10221764;29;20044;-84
2022/07/04 16:20:11;;;;;;;7.20;5.60;;;;;;;;;;10216882;28;20114;-83
2022/07/04 16:25:31;;;;;;;6.15;4.78;;;;;;;;;;10228849;28;20055;-84
2022/07/04 16:30:50;;;;;;;6.93;4.72;;;;;;;;;;10229269;28;20047;-83
2022/07/04 16:36:09;;;;;;;5.93;4.57;;;;;;;;;;10216976;28;20060;-84
2022/07/04 16:41:29;;;;;;;4.53;4.13;;;;;;;;;;10250913;28;20043;-84
2022/07/04 16:46:48;;;;;;;6.28;4.38;;;;;;;;;;10247817;28;20562;-85
2022/07/04 16:52:07;;;;;;;11.55;4.18;;;;;;;;;;10254941;28;20491;-86
2022/07/04 16:57:27;;;;;;;3.95;3.63;;;;;;;;;;10223334;29;20412;-85
2022/07/04 17:02:47;;;;;;;4.10;3.70;;;;;;;;;;10232136;28;20051;-83
2022/07/04 17:08:06;;;;;;;7.60;3.97;;;;;;;;;;10224719;28;20059;-84
2022/07/04 17:13:25;;;;;;;5.47;3.80;;;;;;;;;;10214617;29;20051;-84
2022/07/04 17:18:45;;;;;;;4.68;3.42;;;;;;;;;;10235648;28;20043;-82
2022/07/04 17:24:04;;;;;;;6.07;3.40;;;;;;;;;;10225892;28;20594;-84
2022/07/04 17:29:24;;;;;;;8.35;3.25;;;;;;;;;;10237092;28;20039;-84
2022/07/04 17:34:43;;;;;;;5.35;3.08;;;;;;;;;;10248433;28;20109;-83
2022/07/04 17:40:04;;;;;;;5.05;3.40;;;;;;;;;;10249473;28;20427;-84
2022/07/04 17:45:23;;;;;;;6.72;3.70;;;;;;;;;;10240044;28;20047;-84
2022/07/04 17:50:43;;;;;;;5.32;3.13;;;;;;;;;;10248072;28;20043;-83
2022/07/04 17:56:03;;;;;;;3.92;3.15;;;;;;;;;;10235605;28;20039;-82
2022/07/04 18:01:22;;;;;;;4.60;3.70;;;;;;;;;;10230931;28;20141;-83
2022/07/04 18:06:42;;;;;;;3.63;3.33;;;;;;;;;;10208385;28;20389;-83
2022/07/04 18:12:02;;;;;;;6.63;3.60;;;;;;;;;;10211101;28;20118;-84
2022/07/04 18:17:22;;;;;;;4.25;3.80;;;;;;;;;;10222486;28;20402;-82
2022/07/04 18:22:42;;;;;;;4.10;3.70;;;;;;;;;;10220072;28;20423;-82
2022/07/04 18:28:01;;;;;;;3.97;3.58;;;;;;;;;;10228846;28;20166;-82
2022/07/04 18:33:21;;;;;;;4.07;3.53;;;;;;;;;;10194569;28;20090;-83
2022/07/04 18:38:40;;;;;;;4.97;3.70;;;;;;;;;;10225586;28;20036;-82
2022/07/04 18:43:59;;;;;;;5.15;3.35;;;;;;;;;;10211775;28;20046;-82
2022/07/04 18:49:19;;;;;;;3.80;3.50;;;;;;;;;;10225926;28;20058;-82
2022/07/04 18:54:38;;;;;;;4.40;3.05;;;;;;;;;;10203671;28;20056;-82
2022/07/04 19:00:00;;;;;;;4.10;3.50;;;;;;;;;;10222362;28;20043;-82
2022/07/04 19:05:20;;;;;;;3.50;3.20;;;;;;;;;;10222280;28;20039;-81
2022/07/04 19:10:40;;;;;;;4.97;3.28;;;;;;;;;;10213309;28;20036;-82
2022/07/04 19:16:00;;;;;;;3.67;3.38;;;;;;;;;;10215373;28;20059;-82
2022/07/04 19:21:19;;;;;;;4.82;3.50;;;;;;;;;;10194376;28;20411;-82
2022/07/04 19:26:39;;;;;;;3.25;2.92;;;;;;;;;;10205622;29;20056;-82
2022/07/04 19:31:58;;;;;;;3.72;3.35;;;;;;;;;;10226197;28;20419;-83
2022/07/04 19:37:17;;;;;;;3.58;3.28;;;;;;;;;;10209141;28;20047;-82
2022/07/04 19:42:37;;;;;;;3.50;3.20;;;;;;;;;;10204172;28;20044;-82
2022/07/04 19:47:57;;;;;;;3.70;3.15;;;;;;;;;;10195935;28;20040;-83
2022/07/04 19:53:16;;;;;;;3.10;2.80;;;;;;;;;;10205642;28;20603;-82
2022/07/04 19:58:35;;;;;;;3.85;3.25;;;;;;;;;;10224326;28;20480;-82
2022/07/04 20:03:54;;;;;;;3.88;3.20;;;;;;;;;;10231874;28;20040;-82
2022/07/04 20:09:14;;;;;;;3.42;3.13;;;;;;;;;;10224911;28;20048;-82
2022/07/04 20:14:34;;;;;;;3.45;3.15;;;;;;;;;;10214163;28;20059;-82
2022/07/04 20:19:54;;;;;;;3.22;2.95;;;;;;;;;;10228664;28;20051;-82
2022/07/04 20:25:14;;;;;;;2.90;2.53;;;;;;;;;;10190703;29;20075;-82
2022/07/04 20:30:33;;;;;;;3.00;2.80;;;;;;;;;;10214885;28;20052;-82
2022/07/04 20:35:53;;;;;;;4.82;3.38;;;;;;;;;;10213067;28;20487;-82
2022/07/04 20:41:12;;;;;;;3.00;2.78;;;;;;;;;;10213672;28;20555;-82
2022/07/04 20:46:32;;;;;;;3.25;3.00;;;;;;;;;;10188866;29;22026;-84
2022/07/04 20:51:52;;;;;;;3.85;2.92;;;;;;;;;;10218643;28;20043;-82
2022/07/04 20:57:11;;;;;;;5.25;3.22;;;;;;;;;;10209379;28;20110;-83
2022/07/04 21:02:30;;;;;;;3.13;2.83;;;;;;;;;;10192806;28;20031;-82
2022/07/04 21:07:50;;;;;;;2.97;2.67;;;;;;;;;;10196295;28;20047;-82
2022/07/04 21:13:09;;;;;;;3.22;2.75;;;;;;;;;;10207095;28;20051;-82
2022/07/04 21:18:28;;;;;;;3.20;2.90;;;;;;;;;;10205497;28;20055;-82
2022/07/04 21:23:48;;;;;;;3.33;2.85;;;;;;;;;;10206814;28;20123;-82
2022/07/04 21:29:07;;;;;;;3.03;2.83;;;;;;;;;;10197588;28;20047;-82
2022/07/04 21:34:27;;;;;;;3.70;2.63;;;;;;;;;;10196420;28;20040;-82
2022/07/04 21:39:46;;;;;;;3.10;2.80;;;;;;;;;;10197895;29;20039;-82
2022/07/04 21:45:07;;;;;;;2.67;2.47;;;;;;;;;;10192167;28;20052;-82
2022/07/04 21:50:26;;;;;;;2.97;2.78;;;;;;;;;;10206329;28;20047;-83
2022/07/04 21:55:46;;;;;;;2.80;2.60;;;;;;;;;;10203764;28;20055;-82
2022/07/04 22:01:06;;;;;;;3.00;2.80;;;;;;;;;;10206431;28;20044;-83
2022/07/04 22:06:25;;;;;;;2.83;2.55;;;;;;;;;;10213074;28;20491;-83
2022/07/04 22:11:44;;;;;;;2.60;2.40;;;;;;;;;;10207688;28;20044;-83
2022/07/04 22:17:03;;;;;;;2.80;2.47;;;;;;;;;;10215822;28;20039;-83
2022/07/04 22:22:23;;;;;;;2.70;2.50;;;;;;;;;;10210426;28;20040;-82
2022/07/04 22:27:42;;;;;;;3.75;2.28;;;;;;;;;;10211669;28;20040;-82
2022/07/04 22:33:01;;;;;;;2.78;2.58;;;;;;;;;;10196838;28;20527;-82
2022/07/04 22:38:21;;;;;;;22.95;3.20;;;;;;;;;;10214676;28;20053;-82
2022/07/04 22:43:40;;;;;;;2.80;2.60;;;;;;;;;;10230150;28;20051;-82
2022/07/04 22:48:59;;;;;;;2.70;2.50;;;;;;;;;;10203701;28;20056;-82
2022/07/04 22:59:58;;;;;;;2.50;2.30;;;;;;;;;;10229670;28;20503;-82
2022/07/04 23:05:18;;;;;;;2.42;2.22;;;;;;;;;;10221482;28;20052;-82
2022/07/04 23:10:37;;;;;;;2.40;2.20;;;;;;;;;;10220909;28;20071;-82
2022/07/04 23:15:56;;;;;;;2.38;2.17;;;;;;;;;;10241392;28;20506;-81
2022/07/04 23:21:16;;;;;;;2.40;2.20;;;;;;;;;;10246622;28;20039;-82
2022/07/04 23:26:35;;;;;;;2.38;2.17;;;;;;;;;;10235424;29;20479;-82
2022/07/04 23:31:54;;;;;;;2.50;2.30;;;;;;;;;;10244808;28;20069;-83
2022/07/04 23:37:13;;;;;;;2.35;2.15;;;;;;;;;;10235475;28;20412;-83
2022/07/04 23:42:33;;;;;;;2.08;1.98;;;;;;;;;;10253531;28;20043;-83
2022/07/04 23:47:52;;;;;;;2.10;2.00;;;;;;;;;;10248423;28;20103;-83
2022/07/04 23:53:11;;;;;;;3.13;2.30;;;;;;;;;;10254822;28;20088;-83
2022/07/04 23:58:31;;;;;;;3.10;2.25;;;;;;;;;;10245061;28;20503;-83
